createdAt,value
2019-05-15T00:00:53.375Z,1019.85
2019-05-15T00:01:53.358Z,1019.84
2019-05-15T00:02:53.352Z,1019.86
2019-05-15T00:03:53.349Z,1019.82
2019-05-15T00:04:53.337Z,1019.84
2019-05-15T00:05:53.378Z,1019.81
2019-05-15T00:06:53.305Z,1019.83
2019-05-15T00:07:53.336Z,1019.83
2019-05-15T00:08:53.289Z,1019.85
2019-05-15T00:09:53.280Z,1019.83
2019-05-15T00:10:53.278Z,1019.85
2019-05-15T00:11:53.253Z,1019.87
2019-05-15T00:12:53.250Z,1019.86
2019-05-15T00:13:53.270Z,1019.90
2019-05-15T00:14:53.230Z,1019.96
2019-05-15T00:15:53.210Z,1019.95
2019-05-15T00:16:53.197Z,1019.96
2019-05-15T00:17:53.205Z,1019.91
2019-05-15T00:18:53.171Z,1020.05
2019-05-15T00:19:53.205Z,1020.03
2019-05-15T00:20:53.153Z,1019.96
2019-05-15T00:21:53.143Z,1019.99
2019-05-15T00:22:53.144Z,1019.94
2019-05-15T00:23:53.115Z,1019.97
2019-05-15T00:24:53.111Z,1019.99
2019-05-15T00:26:02.794Z,1019.99
2019-05-15T00:26:53.083Z,1019.92
2019-05-15T00:27:53.078Z,1019.92
2019-05-15T00:28:53.065Z,1019.89
2019-05-15T00:29:53.072Z,1020.04
2019-05-15T00:30:53.044Z,1020.00
2019-05-15T00:31:53.042Z,1019.89
2019-05-15T00:32:53.035Z,1019.88
2019-05-15T00:33:53.012Z,1019.97
2019-05-15T00:34:53.004Z,1019.95
2019-05-15T00:35:53.034Z,1019.90
2019-05-15T00:36:52.988Z,1019.88
2019-05-15T00:37:53.032Z,1019.98
2019-05-15T00:38:52.961Z,1019.95
2019-05-15T00:39:52.958Z,1019.92
2019-05-15T00:40:52.948Z,1020.00
2019-05-15T00:41:54.748Z,1019.90
2019-05-15T00:42:52.933Z,1019.95
2019-05-15T00:43:52.911Z,1019.91
2019-05-15T00:44:52.909Z,1019.98
2019-05-15T00:45:52.897Z,1019.91
2019-05-15T00:46:52.913Z,1020.02
2019-05-15T00:47:52.866Z,1019.97
2019-05-15T00:48:52.860Z,1020.01
2019-05-15T00:49:52.840Z,1019.90
2019-05-15T00:50:52.830Z,1019.95
2019-05-15T00:51:52.818Z,1019.93
2019-05-15T00:52:52.846Z,1019.97
2019-05-15T00:53:52.823Z,1019.91
2019-05-15T00:54:52.785Z,1019.97
2019-05-15T00:55:52.786Z,1019.93
2019-05-15T00:56:52.762Z,1019.99
2019-05-15T00:58:01.323Z,1019.98
2019-05-15T00:58:52.751Z,1019.98
2019-05-15T00:59:52.731Z,1019.96
2019-05-15T01:00:52.720Z,1019.97
2019-05-15T01:01:52.714Z,1019.96
2019-05-15T01:02:52.713Z,1019.93
2019-05-15T01:03:52.738Z,1020.05
2019-05-15T01:04:52.696Z,1019.97
2019-05-15T01:05:52.668Z,1020.00
2019-05-15T01:06:52.870Z,1019.97
2019-05-15T01:07:52.656Z,1019.99
2019-05-15T01:08:52.645Z,1020.06
2019-05-15T01:09:52.651Z,1019.97
2019-05-15T01:10:52.620Z,1019.97
2019-05-15T01:11:52.605Z,1020.00
2019-05-15T01:12:52.592Z,1020.04
2019-05-15T01:13:52.590Z,1020.01
2019-05-15T01:14:52.594Z,1020.02
2019-05-15T01:15:52.572Z,1020.02
2019-05-15T01:16:52.554Z,1019.95
2019-05-15T01:17:52.541Z,1020.03
2019-05-15T01:18:52.527Z,1020.01
2019-05-15T01:19:52.600Z,1020.07
2019-05-15T01:20:52.516Z,1020.10
2019-05-15T01:21:52.503Z,1020.12
2019-05-15T01:22:52.485Z,1020.07
2019-05-15T01:23:52.475Z,1020.06
2019-05-15T01:24:52.463Z,1020.10
2019-05-15T01:25:52.465Z,1020.10
2019-05-15T01:26:52.443Z,1020.04
2019-05-15T01:27:52.445Z,1020.03
2019-05-15T01:28:52.417Z,1020.04
2019-05-15T01:30:00.333Z,1020.04
2019-05-15T01:30:52.442Z,1020.04
2019-05-15T01:31:52.388Z,1020.02
2019-05-15T01:32:52.384Z,1020.02
2019-05-15T01:33:52.386Z,1020.09
2019-05-15T01:34:52.350Z,1020.06
2019-05-15T01:35:52.345Z,1020.09
2019-05-15T01:36:52.361Z,1020.13
2019-05-15T01:37:52.323Z,1020.11
2019-05-15T01:38:52.311Z,1020.09
2019-05-15T01:39:52.298Z,1020.09
2019-05-15T01:40:52.290Z,1020.17
2019-05-15T01:41:52.293Z,1020.11
2019-05-15T01:42:52.285Z,1020.09
2019-05-15T01:43:52.260Z,1020.10
2019-05-15T01:44:52.243Z,1020.04
2019-05-15T01:45:52.240Z,1020.09
2019-05-15T01:46:52.238Z,1020.08
2019-05-15T01:47:52.216Z,1020.06
2019-05-15T01:48:52.216Z,1020.17
2019-05-15T01:49:52.190Z,1020.11
2019-05-15T01:50:52.184Z,1020.12
2019-05-15T01:51:52.175Z,1020.14
2019-05-15T01:52:52.161Z,1020.08
2019-05-15T01:53:52.163Z,1020.06
2019-05-15T01:54:52.160Z,1020.11
2019-05-15T01:55:52.130Z,1020.12
2019-05-15T01:56:52.123Z,1020.13
2019-05-15T01:57:52.117Z,1020.13
2019-05-15T01:58:52.133Z,1020.11
2019-05-15T01:59:56.996Z,1020.13
2019-05-15T02:00:53.080Z,1020.08
2019-05-15T02:01:59.560Z,1020.09
2019-05-15T02:02:52.057Z,1020.05
2019-05-15T02:03:52.041Z,1020.11
2019-05-15T02:04:52.041Z,1020.04
2019-05-15T02:05:52.024Z,1020.11
2019-05-15T02:06:52.023Z,1020.06
2019-05-15T02:07:52.005Z,1020.03
2019-05-15T02:08:52.006Z,1020.06
2019-05-15T02:09:51.986Z,1020.07
2019-05-15T02:10:51.968Z,1020.03
2019-05-15T02:11:51.972Z,1020.08
2019-05-15T02:12:51.965Z,1020.11
2019-05-15T02:13:51.999Z,1020.11
2019-05-15T02:14:51.931Z,1020.09
2019-05-15T02:15:51.931Z,1020.13
2019-05-15T02:16:51.901Z,1020.11
2019-05-15T02:17:51.890Z,1020.11
2019-05-15T02:18:51.878Z,1020.09
2019-05-15T02:19:51.939Z,1020.07
2019-05-15T02:20:51.875Z,1020.08
2019-05-15T02:21:51.870Z,1020.06
2019-05-15T02:22:51.845Z,1020.14
2019-05-15T02:23:51.896Z,1020.19
2019-05-15T02:24:51.816Z,1020.13
2019-05-15T02:25:51.812Z,1020.19
2019-05-15T02:26:51.805Z,1020.19
2019-05-15T02:27:51.801Z,1020.16
2019-05-15T02:28:51.797Z,1020.14
2019-05-15T02:29:51.767Z,1020.15
2019-05-15T02:30:51.765Z,1020.20
2019-05-15T02:31:51.771Z,1020.21
2019-05-15T02:32:51.770Z,1020.19
2019-05-15T02:33:59.363Z,1020.16
2019-05-15T02:34:51.719Z,1020.16
2019-05-15T02:35:51.699Z,1020.12
2019-05-15T02:36:51.689Z,1020.15
2019-05-15T02:37:51.675Z,1020.11
2019-05-15T02:38:51.712Z,1020.11
2019-05-15T02:39:51.662Z,1020.10
2019-05-15T02:40:51.655Z,1020.08
2019-05-15T02:41:51.646Z,1020.07
2019-05-15T02:42:51.630Z,1020.16
2019-05-15T02:43:51.625Z,1020.10
2019-05-15T02:44:51.784Z,1020.12
2019-05-15T02:45:51.592Z,1020.16
2019-05-15T02:46:51.587Z,1020.07
2019-05-15T02:47:51.573Z,1020.09
2019-05-15T02:48:51.559Z,1020.08
2019-05-15T02:49:51.552Z,1020.06
2019-05-15T02:50:51.548Z,1020.04
2019-05-15T02:51:51.655Z,1020.02
2019-05-15T02:52:51.525Z,1020.03
2019-05-15T02:53:51.520Z,1020.03
2019-05-15T02:54:51.534Z,1020.04
2019-05-15T02:55:51.490Z,1020.02
2019-05-15T02:56:51.488Z,1020.02
2019-05-15T02:57:51.467Z,1020.03
2019-05-15T02:58:51.465Z,1019.99
2019-05-15T02:59:51.445Z,1020.00
2019-05-15T03:00:53.493Z,1019.98
2019-05-15T03:01:51.418Z,1019.99
2019-05-15T03:02:51.405Z,1020.00
2019-05-15T03:03:51.395Z,1019.96
2019-05-15T03:04:51.393Z,1020.02
2019-05-15T03:06:00.359Z,1020.03
2019-05-15T03:06:51.361Z,1020.04
2019-05-15T03:07:51.360Z,1020.07
2019-05-15T03:08:51.345Z,1020.04
2019-05-15T03:09:51.330Z,1020.00
2019-05-15T03:10:51.327Z,1020.04
2019-05-15T03:11:51.324Z,1020.04
2019-05-15T03:12:51.351Z,1020.01
2019-05-15T03:13:51.303Z,1020.07
2019-05-15T03:14:51.293Z,1020.06
2019-05-15T03:15:51.312Z,1020.06
2019-05-15T03:16:51.271Z,1020.03
2019-05-15T03:17:51.248Z,1020.02
2019-05-15T03:18:55.173Z,1020.12
2019-05-15T03:19:51.302Z,1020.05
2019-05-15T03:20:51.222Z,1020.07
2019-05-15T03:21:51.225Z,1020.04
2019-05-15T03:22:51.203Z,1020.07
2019-05-15T03:23:51.187Z,1020.07
2019-05-15T03:24:51.187Z,1020.15
2019-05-15T03:25:51.172Z,1020.04
2019-05-15T03:26:51.202Z,1020.14
2019-05-15T03:27:51.146Z,1020.12
2019-05-15T03:28:51.212Z,1020.15
2019-05-15T03:29:51.131Z,1020.13
2019-05-15T03:31:14.837Z,1020.11
2019-05-15T03:32:06.022Z,1020.09
2019-05-15T03:33:00.824Z,1020.12
2019-05-15T03:33:54.434Z,1020.15
2019-05-15T03:34:56.656Z,1020.13
2019-05-15T03:35:54.142Z,1020.16
2019-05-15T03:36:53.123Z,1020.15
2019-05-15T03:37:59.876Z,1020.16
2019-05-15T03:38:51.020Z,1020.14
2019-05-15T03:39:51.957Z,1020.13
2019-05-15T03:40:51.005Z,1020.19
2019-05-15T03:41:50.992Z,1020.16
2019-05-15T03:42:50.989Z,1020.21
2019-05-15T03:43:51.023Z,1020.21
2019-05-15T03:44:50.957Z,1020.20
2019-05-15T03:45:50.955Z,1020.18
2019-05-15T03:46:50.952Z,1020.19
2019-05-15T03:47:50.982Z,1020.22
2019-05-15T03:48:50.923Z,1020.24
2019-05-15T03:49:50.928Z,1020.25
2019-05-15T03:50:50.897Z,1020.28
2019-05-15T03:51:50.887Z,1020.25
2019-05-15T03:52:50.876Z,1020.25
2019-05-15T03:53:50.953Z,1020.26
2019-05-15T03:54:50.901Z,1020.22
2019-05-15T03:55:50.849Z,1020.26
2019-05-15T03:56:50.848Z,1020.25
2019-05-15T03:57:50.825Z,1020.22
2019-05-15T03:58:50.816Z,1020.21
2019-05-15T03:59:50.799Z,1020.15
2019-05-15T04:00:50.879Z,1020.21
2019-05-15T04:01:50.798Z,1020.21
2019-05-15T04:02:50.785Z,1020.15
2019-05-15T04:03:50.765Z,1020.22
2019-05-15T04:04:50.758Z,1020.27
2019-05-15T04:05:50.745Z,1020.29
2019-05-15T04:06:50.777Z,1020.20
2019-05-15T04:07:50.721Z,1020.18
2019-05-15T04:08:50.711Z,1020.23
2019-05-15T04:09:58.801Z,1020.23
2019-05-15T04:10:50.679Z,1020.33
2019-05-15T04:11:50.671Z,1020.27
2019-05-15T04:12:50.686Z,1020.29
2019-05-15T04:13:50.651Z,1020.29
2019-05-15T04:14:50.646Z,1020.33
2019-05-15T04:15:50.668Z,1020.27
2019-05-15T04:16:50.634Z,1020.27
2019-05-15T04:17:50.686Z,1020.27
2019-05-15T04:18:50.756Z,1020.29
2019-05-15T04:19:50.593Z,1020.31
2019-05-15T04:20:50.594Z,1020.24
2019-05-15T04:21:50.574Z,1020.28
2019-05-15T04:22:50.584Z,1020.26
2019-05-15T04:23:50.633Z,1020.32
2019-05-15T04:24:50.600Z,1020.28
2019-05-15T04:25:50.526Z,1020.31
2019-05-15T04:26:50.511Z,1020.30
2019-05-15T04:27:50.509Z,1020.32
2019-05-15T04:28:50.560Z,1020.28
2019-05-15T04:29:50.489Z,1020.34
2019-05-15T04:30:50.489Z,1020.29
2019-05-15T04:32:00.647Z,1020.28
2019-05-15T04:32:51.536Z,1020.26
2019-05-15T04:33:50.442Z,1020.24
2019-05-15T04:34:50.433Z,1020.27
2019-05-15T04:35:50.452Z,1020.34
2019-05-15T04:36:50.421Z,1020.33
2019-05-15T04:37:50.393Z,1020.36
2019-05-15T04:38:50.402Z,1020.36
2019-05-15T04:39:50.425Z,1020.34
2019-05-15T04:40:50.380Z,1020.33
2019-05-15T04:41:59.032Z,1020.35
2019-05-15T04:42:50.337Z,1020.37
2019-05-15T04:43:50.330Z,1020.35
2019-05-15T04:44:50.324Z,1020.37
2019-05-15T04:45:50.321Z,1020.37
2019-05-15T04:46:50.333Z,1020.31
2019-05-15T04:47:50.279Z,1020.36
2019-05-15T04:48:50.776Z,1020.35
2019-05-15T04:49:50.636Z,1020.35
2019-05-15T04:50:50.316Z,1020.35
2019-05-15T04:51:50.257Z,1020.33
2019-05-15T04:52:50.345Z,1020.31
2019-05-15T04:53:50.692Z,1020.34
2019-05-15T04:54:50.215Z,1020.27
2019-05-15T04:55:50.214Z,1020.38
2019-05-15T04:56:50.212Z,1020.36
2019-05-15T04:57:50.407Z,1020.33
2019-05-15T04:58:51.019Z,1020.38
2019-05-15T04:59:50.161Z,1020.31
2019-05-15T05:00:50.329Z,1020.26
2019-05-15T05:01:53.322Z,1020.38
2019-05-15T05:02:51.231Z,1020.40
2019-05-15T05:03:50.125Z,1020.38
2019-05-15T05:04:50.100Z,1020.40
2019-05-15T05:05:50.458Z,1020.35
2019-05-15T05:06:50.081Z,1020.42
2019-05-15T05:07:50.077Z,1020.47
2019-05-15T05:08:50.130Z,1020.43
2019-05-15T05:09:50.051Z,1020.35
2019-05-15T05:10:50.058Z,1020.35
2019-05-15T05:11:50.028Z,1020.36
2019-05-15T05:12:50.927Z,1020.45
2019-05-15T05:13:59.110Z,1020.37
2019-05-15T05:14:50.000Z,1020.50
2019-05-15T05:15:50.662Z,1020.51
2019-05-15T05:16:49.970Z,1020.51
2019-05-15T05:17:49.973Z,1020.44
2019-05-15T05:18:49.971Z,1020.50
2019-05-15T05:19:51.473Z,1020.44
2019-05-15T05:20:49.978Z,1020.54
2019-05-15T05:21:49.919Z,1020.46
2019-05-15T05:22:49.926Z,1020.53
2019-05-15T05:23:49.988Z,1020.52
2019-05-15T05:24:49.898Z,1020.53
2019-05-15T05:25:49.875Z,1020.56
2019-05-15T05:26:49.861Z,1020.56
2019-05-15T05:27:49.852Z,1020.50
2019-05-15T05:28:49.917Z,1020.60
2019-05-15T05:29:49.838Z,1020.57
2019-05-15T05:30:49.842Z,1020.60
2019-05-15T05:31:49.844Z,1020.62
2019-05-15T05:32:49.809Z,1020.56
2019-05-15T05:33:49.794Z,1020.57
2019-05-15T05:34:49.813Z,1020.51
2019-05-15T05:35:49.764Z,1020.58
2019-05-15T05:36:49.757Z,1020.56
2019-05-15T05:37:49.743Z,1020.59
2019-05-15T05:38:49.749Z,1020.63
2019-05-15T05:39:49.720Z,1020.61
2019-05-15T05:40:50.166Z,1020.60
2019-05-15T05:41:49.710Z,1020.61
2019-05-15T05:42:49.689Z,1020.58
2019-05-15T05:43:49.686Z,1020.64
2019-05-15T05:44:49.669Z,1020.63
2019-05-15T05:45:58.505Z,1020.55
2019-05-15T05:46:49.646Z,1020.60
2019-05-15T05:47:49.635Z,1020.62
2019-05-15T05:48:49.637Z,1020.63
2019-05-15T05:49:49.615Z,1020.64
2019-05-15T05:50:50.302Z,1020.65
2019-05-15T05:51:49.590Z,1020.65
2019-05-15T05:52:49.678Z,1020.60
2019-05-15T05:53:49.572Z,1020.69
2019-05-15T05:54:49.559Z,1020.59
2019-05-15T05:55:52.971Z,1020.68
2019-05-15T05:56:49.555Z,1020.67
2019-05-15T05:57:49.536Z,1020.60
2019-05-15T05:58:49.597Z,1020.61
2019-05-15T05:59:49.509Z,1020.65
2019-05-15T06:00:49.502Z,1020.62
2019-05-15T06:01:49.692Z,1020.61
2019-05-15T06:02:52.350Z,1020.51
2019-05-15T06:03:49.491Z,1020.62
2019-05-15T06:04:49.489Z,1020.69
2019-05-15T06:05:49.988Z,1020.68
2019-05-15T06:07:06.182Z,1020.59
2019-05-15T06:07:50.433Z,1020.65
2019-05-15T06:08:49.402Z,1020.67
2019-05-15T06:09:49.456Z,1020.68
2019-05-15T06:10:49.853Z,1020.67
2019-05-15T06:11:49.378Z,1020.66
2019-05-15T06:12:49.457Z,1020.69
2019-05-15T06:13:52.482Z,1020.69
2019-05-15T06:14:49.342Z,1020.69
2019-05-15T06:15:49.380Z,1020.72
2019-05-15T06:16:49.321Z,1020.69
2019-05-15T06:17:58.441Z,1020.73
2019-05-15T06:18:49.410Z,1020.66
2019-05-15T06:19:49.296Z,1020.69
2019-05-15T06:20:49.884Z,1020.69
2019-05-15T06:21:56.788Z,1020.74
2019-05-15T06:22:50.258Z,1020.74
2019-05-15T06:23:55.368Z,1020.69
2019-05-15T06:24:50.352Z,1020.72
2019-05-15T06:25:49.237Z,1020.78
2019-05-15T06:26:49.223Z,1020.75
2019-05-15T06:27:49.247Z,1020.81
2019-05-15T06:28:49.304Z,1020.81
2019-05-15T06:29:49.188Z,1020.69
2019-05-15T06:30:49.180Z,1020.73
2019-05-15T06:31:49.156Z,1020.77
2019-05-15T06:33:04.315Z,1020.70
2019-05-15T06:33:50.178Z,1020.71
2019-05-15T06:34:49.131Z,1020.75
2019-05-15T06:35:49.450Z,1020.70
2019-05-15T06:36:49.138Z,1020.71
2019-05-15T06:37:49.097Z,1020.67
2019-05-15T06:38:49.108Z,1020.77
2019-05-15T06:39:49.083Z,1020.71
2019-05-15T06:40:49.120Z,1020.66
2019-05-15T06:41:49.095Z,1020.72
2019-05-15T06:42:49.061Z,1020.76
2019-05-15T06:43:49.033Z,1020.84
2019-05-15T06:44:49.029Z,1020.81
2019-05-15T06:45:49.258Z,1020.77
2019-05-15T06:46:49.041Z,1020.80
2019-05-15T06:47:49.002Z,1020.78
2019-05-15T06:48:48.975Z,1020.81
2019-05-15T06:49:57.966Z,1020.86
2019-05-15T06:50:49.510Z,1020.81
2019-05-15T06:51:48.976Z,1020.86
2019-05-15T06:52:48.929Z,1020.84
2019-05-15T06:53:49.355Z,1020.82
2019-05-15T06:54:48.919Z,1020.81
2019-05-15T06:55:49.101Z,1020.84
2019-05-15T06:56:49.373Z,1020.79
2019-05-15T06:57:48.886Z,1020.77
2019-05-15T06:58:48.961Z,1020.75
2019-05-15T06:59:48.903Z,1020.78
2019-05-15T07:00:49.393Z,1020.69
2019-05-15T07:01:48.842Z,1020.68
2019-05-15T07:02:48.831Z,1020.73
2019-05-15T07:03:48.820Z,1020.70
2019-05-15T07:04:48.991Z,1020.67
2019-05-15T07:05:50.793Z,1020.65
2019-05-15T07:06:49.108Z,1020.67
2019-05-15T07:07:48.957Z,1020.65
2019-05-15T07:08:49.694Z,1020.69
2019-05-15T07:09:48.843Z,1020.65
2019-05-15T07:10:48.955Z,1020.78
2019-05-15T07:11:48.743Z,1020.73
2019-05-15T07:12:51.460Z,1020.72
2019-05-15T07:13:48.828Z,1020.81
2019-05-15T07:14:48.915Z,1020.84
2019-05-15T07:15:49.616Z,1020.81
2019-05-15T07:16:49.022Z,1020.78
2019-05-15T07:17:48.664Z,1020.80
2019-05-15T07:18:48.842Z,1020.84
2019-05-15T07:19:48.716Z,1020.79
2019-05-15T07:20:49.037Z,1020.75
2019-05-15T07:21:58.070Z,1020.84
2019-05-15T07:22:49.179Z,1020.82
2019-05-15T07:23:49.606Z,1020.81
2019-05-15T07:24:48.589Z,1020.78
2019-05-15T07:25:49.800Z,1020.84
2019-05-15T07:26:48.621Z,1020.81
2019-05-15T07:27:48.648Z,1020.80
2019-05-15T07:28:48.764Z,1020.80
2019-05-15T07:29:48.890Z,1020.74
2019-05-15T07:30:49.329Z,1020.78
2019-05-15T07:31:48.548Z,1020.83
2019-05-15T07:32:48.870Z,1020.75
2019-05-15T07:33:49.288Z,1020.78
2019-05-15T07:34:48.487Z,1020.80
2019-05-15T07:35:49.407Z,1020.80
2019-05-15T07:36:49.189Z,1020.75
2019-05-15T07:37:48.488Z,1020.77
2019-05-15T07:38:48.651Z,1020.84
2019-05-15T07:39:48.877Z,1020.80
2019-05-15T07:40:56.876Z,1020.77
2019-05-15T07:41:49.449Z,1020.82
2019-05-15T07:42:48.965Z,1020.77
2019-05-15T07:43:49.438Z,1020.75
2019-05-15T07:44:48.446Z,1020.80
2019-05-15T07:45:54.323Z,1020.78
2019-05-15T07:46:49.354Z,1020.77
2019-05-15T07:47:48.975Z,1020.72
2019-05-15T07:48:49.079Z,1020.74
2019-05-15T07:49:49.190Z,1020.73
2019-05-15T07:50:49.813Z,1020.74
2019-05-15T07:51:49.005Z,1020.71
2019-05-15T07:52:48.632Z,1020.78
2019-05-15T07:53:58.326Z,1020.74
2019-05-15T07:54:48.872Z,1020.73
2019-05-15T07:55:50.338Z,1020.76
2019-05-15T07:56:48.838Z,1020.66
2019-05-15T07:57:49.582Z,1020.72
2019-05-15T07:58:52.423Z,1020.74
2019-05-15T07:59:48.208Z,1020.67
2019-05-15T08:00:49.315Z,1020.67
2019-05-15T08:01:48.802Z,1020.70
2019-05-15T08:02:48.386Z,1020.81
2019-05-15T08:03:58.749Z,1020.74
2019-05-15T08:04:49.181Z,1020.71
2019-05-15T08:05:58.733Z,1020.71
2019-05-15T08:06:49.245Z,1020.77
2019-05-15T08:07:48.985Z,1020.73
2019-05-15T08:08:48.759Z,1020.72
2019-05-15T08:09:48.732Z,1020.74
2019-05-15T08:10:49.041Z,1020.71
2019-05-15T08:11:48.726Z,1020.70
2019-05-15T08:12:49.504Z,1020.72
2019-05-15T08:13:48.726Z,1020.72
2019-05-15T08:14:50.738Z,1020.74
2019-05-15T08:15:48.799Z,1020.75
2019-05-15T08:16:48.658Z,1020.77
2019-05-15T08:18:03.841Z,1020.72
2019-05-15T08:18:49.000Z,1020.68
2019-05-15T08:19:48.651Z,1020.70
2019-05-15T08:20:49.151Z,1020.71
2019-05-15T08:21:51.715Z,1020.81
2019-05-15T08:22:48.973Z,1020.69
2019-05-15T08:23:48.442Z,1020.78
2019-05-15T08:24:48.416Z,1020.77
2019-05-15T08:25:57.815Z,1020.66
2019-05-15T08:26:48.686Z,1020.65
2019-05-15T08:27:48.428Z,1020.65
2019-05-15T08:28:48.758Z,1020.65
2019-05-15T08:29:48.676Z,1020.67
2019-05-15T08:30:49.360Z,1020.64
2019-05-15T08:31:48.416Z,1020.63
2019-05-15T08:32:51.293Z,1020.62
2019-05-15T08:33:48.308Z,1020.59
2019-05-15T08:34:48.097Z,1020.68
2019-05-15T08:35:51.399Z,1020.55
2019-05-15T08:36:48.456Z,1020.52
2019-05-15T08:37:49.103Z,1020.56
2019-05-15T08:38:48.660Z,1020.56
2019-05-15T08:39:48.854Z,1020.58
2019-05-15T08:40:48.931Z,1020.53
2019-05-15T08:41:48.454Z,1020.56
2019-05-15T08:42:56.557Z,1020.47
2019-05-15T08:43:48.892Z,1020.44
2019-05-15T08:44:48.958Z,1020.43
2019-05-15T08:45:49.649Z,1020.43
2019-05-15T08:46:48.134Z,1020.49
2019-05-15T08:47:49.168Z,1020.41
2019-05-15T08:48:49.084Z,1020.37
2019-05-15T08:49:48.502Z,1020.36
2019-05-15T08:50:48.703Z,1020.44
2019-05-15T08:51:48.645Z,1020.34
2019-05-15T08:52:48.709Z,1020.38
2019-05-15T08:53:48.789Z,1020.30
2019-05-15T08:54:48.618Z,1020.33
2019-05-15T08:55:48.192Z,1020.36
2019-05-15T08:56:48.404Z,1020.31
2019-05-15T08:58:02.512Z,1020.28
2019-05-15T08:58:48.765Z,1020.31
2019-05-15T08:59:48.848Z,1020.32
2019-05-15T09:00:51.835Z,1020.41
2019-05-15T09:01:48.946Z,1020.40
2019-05-15T09:02:48.923Z,1020.35
2019-05-15T09:03:48.915Z,1020.36
2019-05-15T09:04:48.669Z,1020.40
2019-05-15T09:05:48.592Z,1020.37
2019-05-15T09:06:49.757Z,1020.38
2019-05-15T09:07:48.706Z,1020.38
2019-05-15T09:08:49.048Z,1020.47
2019-05-15T09:09:48.695Z,1020.30
2019-05-15T09:10:49.886Z,1020.38
2019-05-15T09:11:48.318Z,1020.37
2019-05-15T09:12:50.206Z,1020.41
2019-05-15T09:13:52.757Z,1020.31
2019-05-15T09:14:48.773Z,1020.29
2019-05-15T09:15:48.166Z,1020.28
2019-05-15T09:16:49.001Z,1020.26
2019-05-15T09:17:48.820Z,1020.24
2019-05-15T09:18:48.566Z,1020.30
2019-05-15T09:19:48.201Z,1020.30
2019-05-15T09:20:49.046Z,1020.23
2019-05-15T09:21:49.109Z,1020.43
2019-05-15T09:22:49.009Z,1020.34
2019-05-15T09:23:49.863Z,1020.38
2019-05-15T09:24:48.883Z,1020.32
2019-05-15T09:25:49.298Z,1020.31
2019-05-15T09:26:48.753Z,1020.30
2019-05-15T09:27:48.826Z,1020.32
2019-05-15T09:28:49.408Z,1020.29
2019-05-15T09:29:59.204Z,1020.25
2019-05-15T09:30:48.311Z,1020.27
2019-05-15T09:31:48.331Z,1020.21
2019-05-15T09:32:48.385Z,1020.29
2019-05-15T09:33:49.289Z,1020.21
2019-05-15T09:34:54.209Z,1020.25
2019-05-15T09:35:49.043Z,1020.25
2019-05-15T09:36:48.596Z,1020.27
2019-05-15T09:37:48.859Z,1020.26
2019-05-15T09:38:49.155Z,1020.21
2019-05-15T09:39:48.925Z,1020.23
2019-05-15T09:40:50.192Z,1020.18
2019-05-15T09:41:48.793Z,1020.22
2019-05-15T09:42:48.750Z,1020.20
2019-05-15T09:43:48.582Z,1020.28
2019-05-15T09:44:48.588Z,1020.22
2019-05-15T09:45:49.292Z,1020.21
2019-05-15T09:46:48.916Z,1020.17
2019-05-15T09:47:48.390Z,1020.16
2019-05-15T09:48:51.227Z,1020.15
2019-05-15T09:49:48.507Z,1020.15
2019-05-15T09:50:49.319Z,1020.15
2019-05-15T09:51:49.040Z,1020.18
2019-05-15T09:52:50.008Z,1020.14
2019-05-15T09:53:48.495Z,1020.18
2019-05-15T09:54:49.036Z,1020.14
2019-05-15T09:55:49.373Z,1020.13
2019-05-15T09:56:49.397Z,1020.12
2019-05-15T09:57:49.004Z,1020.11
2019-05-15T09:58:48.917Z,1020.10
2019-05-15T09:59:48.746Z,1020.20
2019-05-15T10:00:52.144Z,1020.15
2019-05-15T10:02:57.162Z,1020.13
2019-05-15T10:03:57.142Z,1020.23
2019-05-15T10:05:06.097Z,1020.09
2019-05-15T10:05:58.174Z,1020.25
2019-05-15T10:06:57.115Z,1020.27
2019-05-15T10:07:57.108Z,1020.21
2019-05-15T10:08:57.090Z,1020.16
2019-05-15T10:09:57.139Z,1020.16
2019-05-15T10:10:59.201Z,1020.15
2019-05-15T10:11:57.093Z,1020.17
2019-05-15T10:12:59.485Z,1020.06
2019-05-15T10:13:58.560Z,1020.07
2019-05-15T10:14:59.195Z,1020.07
2019-05-15T10:15:58.589Z,1020.08
2019-05-15T10:16:58.386Z,1020.02
2019-05-15T10:17:59.540Z,1020.16
2019-05-15T10:18:58.184Z,1020.10
2019-05-15T10:19:58.251Z,1020.05
2019-05-15T10:20:58.184Z,1020.10
2019-05-15T10:21:59.374Z,1020.06
2019-05-15T10:22:59.034Z,1020.01
2019-05-15T10:23:59.005Z,1020.02
2019-05-15T10:24:58.688Z,1020.03
2019-05-15T10:25:58.912Z,1020.02
2019-05-15T10:26:58.056Z,1019.84
2019-05-15T10:27:57.982Z,1019.89
2019-05-15T10:28:58.452Z,1019.85
2019-05-15T10:29:58.871Z,1019.91
2019-05-15T10:30:59.807Z,1019.91
2019-05-15T10:31:56.842Z,1019.96
2019-05-15T10:32:56.845Z,1020.00
2019-05-15T10:34:05.366Z,1019.90
2019-05-15T10:34:58.646Z,1019.98
2019-05-15T10:35:59.050Z,1019.91
2019-05-15T10:36:58.925Z,1019.89
2019-05-15T10:37:59.142Z,1019.90
2019-05-15T10:38:59.055Z,1019.92
2019-05-15T10:39:58.456Z,1019.84
2019-05-15T10:41:08.140Z,1019.91
2019-05-15T10:41:57.739Z,1019.91
2019-05-15T10:42:59.305Z,1019.88
2019-05-15T10:43:57.821Z,1019.73
2019-05-15T10:44:58.805Z,1019.77
2019-05-15T10:45:58.756Z,1019.78
2019-05-15T10:46:58.483Z,1019.83
2019-05-15T10:47:58.542Z,1019.85
2019-05-15T10:48:58.599Z,1019.67
2019-05-15T10:49:56.652Z,1019.79
2019-05-15T10:51:01.869Z,1019.80
2019-05-15T10:51:57.676Z,1019.81
2019-05-15T10:52:56.624Z,1019.72
2019-05-15T10:53:56.612Z,1019.71
2019-05-15T10:54:58.057Z,1019.78
2019-05-15T10:55:59.556Z,1019.87
2019-05-15T10:57:00.547Z,1019.79
2019-05-15T10:57:56.650Z,1019.77
2019-05-15T10:58:58.840Z,1019.81
2019-05-15T10:59:58.380Z,1019.77
2019-05-15T11:01:01.030Z,1019.76
2019-05-15T11:01:59.115Z,1019.73
2019-05-15T11:02:57.957Z,1019.70
2019-05-15T11:03:58.856Z,1019.70
2019-05-15T11:04:57.894Z,1019.77
2019-05-15T11:06:08.853Z,1019.68
2019-05-15T11:06:58.099Z,1019.74
2019-05-15T11:07:58.746Z,1019.81
2019-05-15T11:08:58.354Z,1019.78
2019-05-15T11:09:58.194Z,1019.76
2019-05-15T11:10:58.518Z,1019.68
2019-05-15T11:11:58.323Z,1019.71
2019-05-15T11:12:58.111Z,1019.75
2019-05-15T11:14:00.245Z,1019.73
2019-05-15T11:14:56.389Z,1019.68
2019-05-15T11:15:56.388Z,1019.72
2019-05-15T11:16:58.823Z,1019.73
2019-05-15T11:17:58.460Z,1019.70
2019-05-15T11:18:58.352Z,1019.80
2019-05-15T11:19:58.526Z,1019.71
2019-05-15T11:20:58.597Z,1019.70
2019-05-15T11:21:58.364Z,1019.77
2019-05-15T11:22:58.974Z,1019.76
2019-05-15T11:23:58.868Z,1019.82
2019-05-15T11:24:56.319Z,1019.66
2019-05-15T11:25:58.086Z,1019.67
2019-05-15T11:26:57.183Z,1019.77
2019-05-15T11:27:58.874Z,1019.81
2019-05-15T11:28:58.749Z,1019.75
2019-05-15T11:29:58.453Z,1019.73
2019-05-15T11:30:59.178Z,1019.68
2019-05-15T11:31:58.049Z,1019.70
2019-05-15T11:32:58.615Z,1019.64
2019-05-15T11:33:58.392Z,1019.71
2019-05-15T11:34:58.259Z,1019.68
2019-05-15T11:36:02.070Z,1019.69
2019-05-15T11:36:59.354Z,1019.73
2019-05-15T11:38:03.928Z,1019.63
2019-05-15T11:38:56.123Z,1019.73
2019-05-15T11:39:58.770Z,1019.73
2019-05-15T11:40:56.117Z,1019.67
2019-05-15T11:41:56.088Z,1019.68
2019-05-15T11:42:56.091Z,1019.63
2019-05-15T11:43:56.092Z,1019.67
2019-05-15T11:44:58.328Z,1019.68
2019-05-15T11:45:58.648Z,1019.70
2019-05-15T11:46:58.476Z,1019.61
2019-05-15T11:47:56.031Z,1019.67
2019-05-15T11:48:58.585Z,1019.67
2019-05-15T11:49:58.331Z,1019.62
2019-05-15T11:50:56.034Z,1019.58
2019-05-15T11:52:00.374Z,1019.60
2019-05-15T11:52:58.477Z,1019.70
2019-05-15T11:53:58.616Z,1019.70
2019-05-15T11:54:58.791Z,1019.57
2019-05-15T11:55:55.942Z,1019.67
2019-05-15T11:56:55.947Z,1019.59
2019-05-15T11:57:55.931Z,1019.59
2019-05-15T11:58:55.912Z,1019.59
2019-05-15T11:59:59.453Z,1019.51
2019-05-15T12:00:57.818Z,1019.55
2019-05-15T12:01:57.923Z,1019.55
2019-05-15T12:02:58.242Z,1019.55
2019-05-15T12:03:58.356Z,1019.60
2019-05-15T12:04:58.414Z,1019.57
2019-05-15T12:05:58.233Z,1019.57
2019-05-15T12:06:59.769Z,1019.53